sensor_id;sensor_type;location;lat;lon;timestamp;P1;durP1;ratioP1;P2;durP2;ratioP2
54929;SDS011;40833;53.238;6.576;2023-08-12T00:01:00;5.47;;;2.45;;
54929;SDS011;40833;53.238;6.576;2023-08-12T00:03:26;9.10;;;2.35;;
54929;SDS011;40833;53.238;6.576;2023-08-12T00:05:52;7.95;;;3.45;;
54929;SDS011;40833;53.238;6.576;2023-08-12T00:08:18;8.40;;;3.00;;
54929;SDS011;40833;53.238;6.576;2023-08-12T00:10:44;7.55;;;2.35;;
54929;SDS011;40833;53.238;6.576;2023-08-12T00:13:10;7.40;;;1.95;;
54929;SDS011;40833;53.238;6.576;2023-08-12T00:15:38;7.35;;;1.90;;
54929;SDS011;40833;53.238;6.576;2023-08-12T00:18:05;4.88;;;2.10;;
54929;SDS011;40833;53.238;6.576;2023-08-12T00:20:32;5.97;;;2.10;;
54929;SDS011;40833;53.238;6.576;2023-08-12T00:22:57;5.32;;;1.77;;
54929;SDS011;40833;53.238;6.576;2023-08-12T00:25:23;7.78;;;2.45;;
54929;SDS011;40833;53.238;6.576;2023-08-12T00:27:49;7.63;;;2.00;;
54929;SDS011;40833;53.238;6.576;2023-08-12T00:30:14;4.60;;;1.85;;
54929;SDS011;40833;53.238;6.576;2023-08-12T00:32:40;7.05;;;2.00;;
54929;SDS011;40833;53.238;6.576;2023-08-12T00:35:06;5.97;;;1.63;;
54929;SDS011;40833;53.238;6.576;2023-08-12T00:37:32;4.07;;;1.67;;
54929;SDS011;40833;53.238;6.576;2023-08-12T00:39:58;5.13;;;1.50;;
54929;SDS011;40833;53.238;6.576;2023-08-12T00:42:23;4.53;;;1.85;;
54929;SDS011;40833;53.238;6.576;2023-08-12T00:44:49;5.03;;;1.70;;
54929;SDS011;40833;53.238;6.576;2023-08-12T00:47:15;5.43;;;1.83;;
54929;SDS011;40833;53.238;6.576;2023-08-12T00:49:42;2.67;;;1.50;;
54929;SDS011;40833;53.238;6.576;2023-08-12T00:52:14;3.70;;;1.38;;
54929;SDS011;40833;53.238;6.576;2023-08-12T00:54:42;11.63;;;1.90;;
54929;SDS011;40833;53.238;6.576;2023-08-12T00:57:08;4.75;;;1.52;;
54929;SDS011;40833;53.238;6.576;2023-08-12T00:59:36;9.50;;;1.80;;
54929;SDS011;40833;53.238;6.576;2023-08-12T01:02:03;4.55;;;1.25;;
54929;SDS011;40833;53.238;6.576;2023-08-12T01:04:30;5.18;;;1.98;;
54929;SDS011;40833;53.238;6.576;2023-08-12T01:06:56;3.50;;;1.35;;
54929;SDS011;40833;53.238;6.576;2023-08-12T01:09:21;3.83;;;1.55;;
54929;SDS011;40833;53.238;6.576;2023-08-12T01:14:23;3.92;;;1.15;;
54929;SDS011;40833;53.238;6.576;2023-08-12T01:16:56;3.20;;;1.33;;
54929;SDS011;40833;53.238;6.576;2023-08-12T01:19:35;6.47;;;1.00;;
54929;SDS011;40833;53.238;6.576;2023-08-12T01:22:03;2.72;;;0.98;;
54929;SDS011;40833;53.238;6.576;2023-08-12T01:24:39;3.83;;;1.23;;
54929;SDS011;40833;53.238;6.576;2023-08-12T01:27:09;3.35;;;1.10;;
54929;SDS011;40833;53.238;6.576;2023-08-12T01:29:37;8.98;;;1.40;;
54929;SDS011;40833;53.238;6.576;2023-08-12T01:35:17;3.75;;;1.50;;
54929;SDS011;40833;53.238;6.576;2023-08-12T01:37:49;4.85;;;1.90;;
54929;SDS011;40833;53.238;6.576;2023-08-12T01:40:16;5.68;;;1.83;;
54929;SDS011;40833;53.238;6.576;2023-08-12T01:42:43;4.90;;;2.33;;
54929;SDS011;40833;53.238;6.576;2023-08-12T01:45:11;6.55;;;2.45;;
54929;SDS011;40833;53.238;6.576;2023-08-12T01:47:37;7.28;;;2.60;;
54929;SDS011;40833;53.238;6.576;2023-08-12T01:50:03;7.78;;;2.55;;
54929;SDS011;40833;53.238;6.576;2023-08-12T01:52:29;3.92;;;2.47;;
54929;SDS011;40833;53.238;6.576;2023-08-12T01:54:54;6.70;;;3.10;;
54929;SDS011;40833;53.238;6.576;2023-08-12T01:57:20;6.78;;;2.90;;
54929;SDS011;40833;53.238;6.576;2023-08-12T01:59:46;8.60;;;3.03;;
54929;SDS011;40833;53.238;6.576;2023-08-12T02:02:12;7.20;;;2.78;;
54929;SDS011;40833;53.238;6.576;2023-08-12T02:04:39;6.00;;;3.35;;
54929;SDS011;40833;53.238;6.576;2023-08-12T02:07:05;6.75;;;3.05;;
54929;SDS011;40833;53.238;6.576;2023-08-12T02:09:31;6.05;;;2.70;;
54929;SDS011;40833;53.238;6.576;2023-08-12T02:11:57;7.57;;;3.40;;
54929;SDS011;40833;53.238;6.576;2023-08-12T02:14:23;6.75;;;3.63;;
54929;SDS011;40833;53.238;6.576;2023-08-12T02:16:48;7.03;;;4.07;;
54929;SDS011;40833;53.238;6.576;2023-08-12T02:19:14;6.60;;;3.65;;
54929;SDS011;40833;53.238;6.576;2023-08-12T02:21:40;5.88;;;3.53;;
54929;SDS011;40833;53.238;6.576;2023-08-12T02:24:06;8.23;;;4.28;;
54929;SDS011;40833;53.238;6.576;2023-08-12T02:26:33;7.20;;;3.50;;
54929;SDS011;40833;53.238;6.576;2023-08-12T02:28:58;6.55;;;4.05;;
54929;SDS011;40833;53.238;6.576;2023-08-12T02:31:24;7.80;;;4.00;;
54929;SDS011;40833;53.238;6.576;2023-08-12T02:33:50;9.65;;;4.07;;
54929;SDS011;40833;53.238;6.576;2023-08-12T02:36:16;11.57;;;4.18;;
54929;SDS011;40833;53.238;6.576;2023-08-12T02:38:41;8.05;;;3.95;;
54929;SDS011;40833;53.238;6.576;2023-08-12T02:41:07;6.38;;;3.70;;
54929;SDS011;40833;53.238;6.576;2023-08-12T02:43:33;9.00;;;3.60;;
54929;SDS011;40833;53.238;6.576;2023-08-12T02:45:58;4.22;;;3.80;;
54929;SDS011;40833;53.238;6.576;2023-08-12T02:48:24;7.43;;;3.33;;
54929;SDS011;40833;53.238;6.576;2023-08-12T02:50:50;8.00;;;3.67;;
54929;SDS011;40833;53.238;6.576;2023-08-12T02:53:15;9.57;;;4.25;;
54929;SDS011;40833;53.238;6.576;2023-08-12T02:55:42;9.02;;;3.92;;
54929;SDS011;40833;53.238;6.576;2023-08-12T02:58:07;8.80;;;4.80;;
54929;SDS011;40833;53.238;6.576;2023-08-12T03:00:33;8.43;;;4.15;;
54929;SDS011;40833;53.238;6.576;2023-08-12T03:02:58;5.93;;;4.00;;
54929;SDS011;40833;53.238;6.576;2023-08-12T03:05:24;7.88;;;4.63;;
54929;SDS011;40833;53.238;6.576;2023-08-12T03:07:50;10.90;;;4.80;;
54929;SDS011;40833;53.238;6.576;2023-08-12T03:10:18;11.40;;;4.90;;
54929;SDS011;40833;53.238;6.576;2023-08-12T03:12:44;7.60;;;4.40;;
54929;SDS011;40833;53.238;6.576;2023-08-12T03:15:10;7.93;;;4.60;;
54929;SDS011;40833;53.238;6.576;2023-08-12T03:17:36;5.18;;;4.20;;
54929;SDS011;40833;53.238;6.576;2023-08-12T03:20:04;8.52;;;4.47;;
54929;SDS011;40833;53.238;6.576;2023-08-12T03:22:32;6.00;;;4.03;;
54929;SDS011;40833;53.238;6.576;2023-08-12T03:24:57;10.68;;;4.93;;
54929;SDS011;40833;53.238;6.576;2023-08-12T03:27:23;8.02;;;4.78;;
54929;SDS011;40833;53.238;6.576;2023-08-12T03:29:48;6.53;;;4.72;;
54929;SDS011;40833;53.238;6.576;2023-08-12T03:32:14;10.93;;;4.63;;
54929;SDS011;40833;53.238;6.576;2023-08-12T03:34:40;6.78;;;4.85;;
54929;SDS011;40833;53.238;6.576;2023-08-12T03:37:05;13.40;;;6.15;;
54929;SDS011;40833;53.238;6.576;2023-08-12T03:39:31;7.20;;;5.72;;
54929;SDS011;40833;53.238;6.576;2023-08-12T03:41:57;9.70;;;5.60;;
54929;SDS011;40833;53.238;6.576;2023-08-12T03:44:22;7.85;;;5.57;;
54929;SDS011;40833;53.238;6.576;2023-08-12T03:46:48;11.93;;;5.82;;
54929;SDS011;40833;53.238;6.576;2023-08-12T03:49:14;8.60;;;6.20;;
54929;SDS011;40833;53.238;6.576;2023-08-12T03:51:39;13.52;;;5.93;;
54929;SDS011;40833;53.238;6.576;2023-08-12T03:54:05;9.38;;;5.78;;
54929;SDS011;40833;53.238;6.576;2023-08-12T03:56:31;9.05;;;6.28;;
54929;SDS011;40833;53.238;6.576;2023-08-12T03:58:56;11.05;;;5.50;;
54929;SDS011;40833;53.238;6.576;2023-08-12T04:01:22;8.90;;;6.00;;
54929;SDS011;40833;53.238;6.576;2023-08-12T04:03:48;8.82;;;6.55;;
54929;SDS011;40833;53.238;6.576;2023-08-12T04:06:13;9.55;;;6.20;;
54929;SDS011;40833;53.238;6.576;2023-08-12T04:08:39;11.55;;;6.50;;
54929;SDS011;40833;53.238;6.576;2023-08-12T04:11:05;12.15;;;6.45;;
54929;SDS011;40833;53.238;6.576;2023-08-12T04:13:30;10.07;;;6.57;;
54929;SDS011;40833;53.238;6.576;2023-08-12T04:15:56;10.88;;;6.97;;
54929;SDS011;40833;53.238;6.576;2023-08-12T04:18:22;9.20;;;6.38;;
54929;SDS011;40833;53.238;6.576;2023-08-12T04:20:48;14.55;;;6.47;;
54929;SDS011;40833;53.238;6.576;2023-08-12T04:23:15;13.60;;;6.82;;
54929;SDS011;40833;53.238;6.576;2023-08-12T04:25:46;10.60;;;6.68;;
54929;SDS011;40833;53.238;6.576;2023-08-12T04:28:12;16.13;;;6.97;;
54929;SDS011;40833;53.238;6.576;2023-08-12T04:30:42;12.70;;;6.75;;
54929;SDS011;40833;53.238;6.576;2023-08-12T04:33:09;15.38;;;7.00;;
54929;SDS011;40833;53.238;6.576;2023-08-12T04:35:35;12.43;;;7.15;;
54929;SDS011;40833;53.238;6.576;2023-08-12T04:38:01;12.88;;;7.22;;
54929;SDS011;40833;53.238;6.576;2023-08-12T04:40:27;13.55;;;7.30;;
54929;SDS011;40833;53.238;6.576;2023-08-12T04:42:53;11.93;;;7.07;;
54929;SDS011;40833;53.238;6.576;2023-08-12T04:45:19;9.93;;;7.13;;
54929;SDS011;40833;53.238;6.576;2023-08-12T04:47:45;13.30;;;7.53;;
54929;SDS011;40833;53.238;6.576;2023-08-12T04:50:10;10.93;;;7.10;;
54929;SDS011;40833;53.238;6.576;2023-08-12T04:52:36;10.23;;;6.55;;
54929;SDS011;40833;53.238;6.576;2023-08-12T04:55:02;11.25;;;6.65;;
54929;SDS011;40833;53.238;6.576;2023-08-12T04:57:28;9.05;;;6.35;;
54929;SDS011;40833;53.238;6.576;2023-08-12T04:59:54;12.40;;;6.70;;
54929;SDS011;40833;53.238;6.576;2023-08-12T05:02:20;12.85;;;6.78;;
54929;SDS011;40833;53.238;6.576;2023-08-12T05:04:49;6.93;;;6.07;;
54929;SDS011;40833;53.238;6.576;2023-08-12T05:07:16;13.60;;;6.72;;
54929;SDS011;40833;53.238;6.576;2023-08-12T05:09:42;8.00;;;5.88;;
54929;SDS011;40833;53.238;6.576;2023-08-12T05:12:10;10.63;;;6.43;;
54929;SDS011;40833;53.238;6.576;2023-08-12T05:14:37;9.93;;;5.78;;
54929;SDS011;40833;53.238;6.576;2023-08-12T05:17:04;10.88;;;5.53;;
54929;SDS011;40833;53.238;6.576;2023-08-12T05:19:31;9.75;;;5.43;;
54929;SDS011;40833;53.238;6.576;2023-08-12T05:21:57;8.27;;;5.25;;
54929;SDS011;40833;53.238;6.576;2023-08-12T05:24:22;11.98;;;5.20;;
54929;SDS011;40833;53.238;6.576;2023-08-12T05:26:48;12.57;;;5.40;;
54929;SDS011;40833;53.238;6.576;2023-08-12T05:29:14;7.32;;;5.90;;
54929;SDS011;40833;53.238;6.576;2023-08-12T05:31:39;11.20;;;6.25;;
54929;SDS011;40833;53.238;6.576;2023-08-12T05:34:05;13.52;;;5.78;;
54929;SDS011;40833;53.238;6.576;2023-08-12T05:36:31;8.98;;;5.53;;
54929;SDS011;40833;53.238;6.576;2023-08-12T05:38:56;7.45;;;5.57;;
54929;SDS011;40833;53.238;6.576;2023-08-12T05:41:22;6.80;;;5.15;;
54929;SDS011;40833;53.238;6.576;2023-08-12T05:43:48;10.77;;;5.18;;
54929;SDS011;40833;53.238;6.576;2023-08-12T05:46:14;8.95;;;5.22;;
54929;SDS011;40833;53.238;6.576;2023-08-12T05:48:40;8.60;;;6.00;;
54929;SDS011;40833;53.238;6.576;2023-08-12T05:51:06;10.80;;;6.13;;
54929;SDS011;40833;53.238;6.576;2023-08-12T05:53:34;10.02;;;5.60;;
54929;SDS011;40833;53.238;6.576;2023-08-12T05:55:59;13.38;;;5.72;;
54929;SDS011;40833;53.238;6.576;2023-08-12T05:58:25;8.23;;;5.18;;
54929;SDS011;40833;53.238;6.576;2023-08-12T06:00:51;9.52;;;6.18;;
54929;SDS011;40833;53.238;6.576;2023-08-12T06:03:17;10.63;;;6.35;;
54929;SDS011;40833;53.238;6.576;2023-08-12T06:05:44;9.05;;;5.55;;
54929;SDS011;40833;53.238;6.576;2023-08-12T06:08:11;7.93;;;5.13;;
54929;SDS011;40833;53.238;6.576;2023-08-12T06:10:37;10.90;;;6.38;;
54929;SDS011;40833;53.238;6.576;2023-08-12T06:13:02;11.48;;;5.75;;
54929;SDS011;40833;53.238;6.576;2023-08-12T06:15:29;13.57;;;6.43;;
54929;SDS011;40833;53.238;6.576;2023-08-12T06:17:54;8.77;;;5.78;;
54929;SDS011;40833;53.238;6.576;2023-08-12T06:20:20;12.27;;;6.28;;
54929;SDS011;40833;53.238;6.576;2023-08-12T06:22:46;12.65;;;6.00;;
54929;SDS011;40833;53.238;6.576;2023-08-12T06:25:12;14.75;;;7.18;;
54929;SDS011;40833;53.238;6.576;2023-08-12T06:27:37;12.13;;;6.90;;
54929;SDS011;40833;53.238;6.576;2023-08-12T06:30:03;10.10;;;7.00;;
54929;SDS011;40833;53.238;6.576;2023-08-12T06:32:30;9.52;;;6.32;;
54929;SDS011;40833;53.238;6.576;2023-08-12T06:34:56;10.95;;;6.80;;
54929;SDS011;40833;53.238;6.576;2023-08-12T06:37:21;14.98;;;6.80;;
54929;SDS011;40833;53.238;6.576;2023-08-12T06:39:47;12.95;;;6.97;;
54929;SDS011;40833;53.238;6.576;2023-08-12T06:42:12;15.68;;;6.88;;
54929;SDS011;40833;53.238;6.576;2023-08-12T06:44:38;13.77;;;7.45;;
54929;SDS011;40833;53.238;6.576;2023-08-12T06:47:04;13.55;;;7.22;;
54929;SDS011;40833;53.238;6.576;2023-08-12T06:49:30;11.55;;;7.35;;
54929;SDS011;40833;53.238;6.576;2023-08-12T06:51:55;15.60;;;8.02;;
54929;SDS011;40833;53.238;6.576;2023-08-12T06:54:21;16.92;;;7.38;;
54929;SDS011;40833;53.238;6.576;2023-08-12T06:56:48;11.65;;;7.70;;
54929;SDS011;40833;53.238;6.576;2023-08-12T06:59:14;10.25;;;6.53;;
54929;SDS011;40833;53.238;6.576;2023-08-12T07:01:40;16.33;;;7.25;;
54929;SDS011;40833;53.238;6.576;2023-08-12T07:04:05;17.67;;;8.85;;
54929;SDS011;40833;53.238;6.576;2023-08-12T07:06:31;18.25;;;7.72;;
54929;SDS011;40833;53.238;6.576;2023-08-12T07:08:57;18.50;;;8.07;;
54929;SDS011;40833;53.238;6.576;2023-08-12T07:11:22;17.67;;;9.05;;
54929;SDS011;40833;53.238;6.576;2023-08-12T07:13:48;13.15;;;8.13;;
54929;SDS011;40833;53.238;6.576;2023-08-12T07:16:14;17.75;;;8.48;;
54929;SDS011;40833;53.238;6.576;2023-08-12T07:18:39;15.32;;;7.90;;
54929;SDS011;40833;53.238;6.576;2023-08-12T07:21:05;11.77;;;7.65;;
54929;SDS011;40833;53.238;6.576;2023-08-12T07:23:31;15.02;;;7.63;;
54929;SDS011;40833;53.238;6.576;2023-08-12T07:25:56;13.15;;;6.60;;
54929;SDS011;40833;53.238;6.576;2023-08-12T07:28:22;12.95;;;7.95;;
54929;SDS011;40833;53.238;6.576;2023-08-12T07:30:49;16.90;;;7.93;;
54929;SDS011;40833;53.238;6.576;2023-08-12T07:33:17;17.15;;;9.25;;
54929;SDS011;40833;53.238;6.576;2023-08-12T07:35:43;17.00;;;9.10;;
54929;SDS011;40833;53.238;6.576;2023-08-12T07:38:08;20.02;;;10.10;;
54929;SDS011;40833;53.238;6.576;2023-08-12T07:40:34;15.85;;;8.70;;
54929;SDS011;40833;53.238;6.576;2023-08-12T07:43:00;14.88;;;8.38;;
54929;SDS011;40833;53.238;6.576;2023-08-12T07:45:25;14.38;;;9.20;;
54929;SDS011;40833;53.238;6.576;2023-08-12T07:47:51;19.40;;;9.18;;
54929;SDS011;40833;53.238;6.576;2023-08-12T07:50:17;16.38;;;9.50;;
54929;SDS011;40833;53.238;6.576;2023-08-12T07:52:43;15.80;;;8.63;;
54929;SDS011;40833;53.238;6.576;2023-08-12T07:55:08;14.23;;;9.27;;
54929;SDS011;40833;53.238;6.576;2023-08-12T07:57:34;16.45;;;10.00;;
54929;SDS011;40833;53.238;6.576;2023-08-12T08:00:00;19.95;;;9.88;;
54929;SDS011;40833;53.238;6.576;2023-08-12T08:02:25;16.50;;;8.85;;
54929;SDS011;40833;53.238;6.576;2023-08-12T08:04:51;17.35;;;10.65;;
54929;SDS011;40833;53.238;6.576;2023-08-12T08:07:17;15.57;;;9.70;;
54929;SDS011;40833;53.238;6.576;2023-08-12T08:09:43;19.52;;;10.73;;
54929;SDS011;40833;53.238;6.576;2023-08-12T08:12:09;19.42;;;10.68;;
54929;SDS011;40833;53.238;6.576;2023-08-12T08:14:36;17.70;;;10.60;;
54929;SDS011;40833;53.238;6.576;2023-08-12T08:17:02;21.35;;;10.32;;
54929;SDS011;40833;53.238;6.576;2023-08-12T08:19:28;17.55;;;10.30;;
54929;SDS011;40833;53.238;6.576;2023-08-12T08:21:54;16.88;;;10.20;;
54929;SDS011;40833;53.238;6.576;2023-08-12T08:24:20;17.30;;;10.20;;
54929;SDS011;40833;53.238;6.576;2023-08-12T08:26:46;19.75;;;11.85;;
54929;SDS011;40833;53.238;6.576;2023-08-12T08:29:12;20.35;;;11.93;;
54929;SDS011;40833;53.238;6.576;2023-08-12T08:31:38;21.45;;;11.98;;
54929;SDS011;40833;53.238;6.576;2023-08-12T08:34:04;20.52;;;11.82;;
54929;SDS011;40833;53.238;6.576;2023-08-12T08:36:30;21.17;;;11.55;;
54929;SDS011;40833;53.238;6.576;2023-08-12T08:38:55;19.02;;;11.50;;
54929;SDS011;40833;53.238;6.576;2023-08-12T08:41:21;20.55;;;12.13;;
54929;SDS011;40833;53.238;6.576;2023-08-12T08:43:50;18.08;;;12.07;;
54929;SDS011;40833;53.238;6.576;2023-08-12T08:46:20;22.15;;;11.95;;
54929;SDS011;40833;53.238;6.576;2023-08-12T08:48:46;20.73;;;12.18;;
54929;SDS011;40833;53.238;6.576;2023-08-12T08:51:13;14.68;;;9.95;;
54929;SDS011;40833;53.238;6.576;2023-08-12T08:53:39;19.90;;;10.93;;
54929;SDS011;40833;53.238;6.576;2023-08-12T08:56:06;25.30;;;12.45;;
54929;SDS011;40833;53.238;6.576;2023-08-12T08:58:33;19.92;;;12.40;;
54929;SDS011;40833;53.238;6.576;2023-08-12T09:00:59;18.52;;;11.75;;
54929;SDS011;40833;53.238;6.576;2023-08-12T09:03:26;17.27;;;11.55;;
54929;SDS011;40833;53.238;6.576;2023-08-12T09:05:53;18.60;;;12.07;;
54929;SDS011;40833;53.238;6.576;2023-08-12T09:08:20;26.73;;;13.27;;
54929;SDS011;40833;53.238;6.576;2023-08-12T09:10:48;23.27;;;11.35;;
54929;SDS011;40833;53.238;6.576;2023-08-12T09:13:14;20.55;;;13.20;;
54929;SDS011;40833;53.238;6.576;2023-08-12T09:15:41;20.20;;;12.35;;
54929;SDS011;40833;53.238;6.576;2023-08-12T09:18:06;26.27;;;14.07;;
54929;SDS011;40833;53.238;6.576;2023-08-12T09:20:33;23.58;;;14.05;;
54929;SDS011;40833;53.238;6.576;2023-08-12T09:22:59;30.20;;;16.73;;
54929;SDS011;40833;53.238;6.576;2023-08-12T09:25:29;29.13;;;16.85;;
54929;SDS011;40833;53.238;6.576;2023-08-12T09:27:55;37.55;;;18.85;;
54929;SDS011;40833;53.238;6.576;2023-08-12T09:30:23;30.67;;;16.52;;
54929;SDS011;40833;53.238;6.576;2023-08-12T09:33:02;27.40;;;16.45;;
54929;SDS011;40833;53.238;6.576;2023-08-12T09:35:41;26.33;;;16.42;;
54929;SDS011;40833;53.238;6.576;2023-08-12T09:38:10;27.90;;;16.67;;
54929;SDS011;40833;53.238;6.576;2023-08-12T09:40:37;25.90;;;16.65;;
54929;SDS011;40833;53.238;6.576;2023-08-12T09:43:03;26.75;;;16.95;;
54929;SDS011;40833;53.238;6.576;2023-08-12T09:45:29;28.60;;;17.10;;
54929;SDS011;40833;53.238;6.576;2023-08-12T09:47:56;27.60;;;17.45;;
54929;SDS011;40833;53.238;6.576;2023-08-12T09:50:23;28.88;;;18.00;;
54929;SDS011;40833;53.238;6.576;2023-08-12T09:52:50;29.75;;;18.42;;
54929;SDS011;40833;53.238;6.576;2023-08-12T09:55:17;29.30;;;17.85;;
54929;SDS011;40833;53.238;6.576;2023-08-12T09:57:44;34.92;;;18.38;;
54929;SDS011;40833;53.238;6.576;2023-08-12T10:00:19;34.00;;;17.77;;
54929;SDS011;40833;53.238;6.576;2023-08-12T10:02:47;27.40;;;17.75;;
54929;SDS011;40833;53.238;6.576;2023-08-12T10:07:47;27.33;;;16.88;;
54929;SDS011;40833;53.238;6.576;2023-08-12T10:10:13;32.50;;;19.33;;
54929;SDS011;40833;53.238;6.576;2023-08-12T10:12:40;27.45;;;17.88;;
54929;SDS011;40833;53.238;6.576;2023-08-12T10:15:07;29.55;;;18.25;;
54929;SDS011;40833;53.238;6.576;2023-08-12T10:17:34;24.98;;;16.02;;
54929;SDS011;40833;53.238;6.576;2023-08-12T10:20:05;31.02;;;17.65;;
54929;SDS011;40833;53.238;6.576;2023-08-12T10:22:33;22.73;;;16.02;;
54929;SDS011;40833;53.238;6.576;2023-08-12T10:25:04;22.60;;;15.88;;
54929;SDS011;40833;53.238;6.576;2023-08-12T10:27:31;27.67;;;16.98;;
54929;SDS011;40833;53.238;6.576;2023-08-12T10:29:58;29.40;;;15.85;;
54929;SDS011;40833;53.238;6.576;2023-08-12T10:32:24;24.50;;;16.38;;
54929;SDS011;40833;53.238;6.576;2023-08-12T10:34:55;26.88;;;17.42;;
54929;SDS011;40833;53.238;6.576;2023-08-12T10:37:22;22.08;;;14.68;;
54929;SDS011;40833;53.238;6.576;2023-08-12T10:39:49;21.58;;;14.57;;
54929;SDS011;40833;53.238;6.576;2023-08-12T10:45:11;18.02;;;11.88;;
54929;SDS011;40833;53.238;6.576;2023-08-12T10:47:39;15.88;;;9.98;;
54929;SDS011;40833;53.238;6.576;2023-08-12T10:50:17;12.32;;;8.90;;
54929;SDS011;40833;53.238;6.576;2023-08-12T10:52:43;12.00;;;9.43;;
54929;SDS011;40833;53.238;6.576;2023-08-12T10:55:17;10.18;;;8.18;;
54929;SDS011;40833;53.238;6.576;2023-08-12T10:57:44;11.27;;;9.23;;
54929;SDS011;40833;53.238;6.576;2023-08-12T11:00:10;13.45;;;7.68;;
54929;SDS011;40833;53.238;6.576;2023-08-12T11:02:39;13.27;;;7.68;;
54929;SDS011;40833;53.238;6.576;2023-08-12T11:05:07;8.73;;;6.45;;
54929;SDS011;40833;53.238;6.576;2023-08-12T11:10:14;8.15;;;4.05;;
54929;SDS011;40833;53.238;6.576;2023-08-12T11:12:48;4.32;;;2.85;;
54929;SDS011;40833;53.238;6.576;2023-08-12T11:15:17;5.82;;;2.75;;
54929;SDS011;40833;53.238;6.576;2023-08-12T11:18:07;4.22;;;2.60;;
54929;SDS011;40833;53.238;6.576;2023-08-12T11:20:36;4.72;;;2.63;;
54929;SDS011;40833;53.238;6.576;2023-08-12T11:23:04;4.40;;;2.20;;
54929;SDS011;40833;53.238;6.576;2023-08-12T11:25:30;2.40;;;2.30;;
54929;SDS011;40833;53.238;6.576;2023-08-12T11:27:57;6.63;;;2.35;;
54929;SDS011;40833;53.238;6.576;2023-08-12T11:30:23;2.92;;;1.52;;
54929;SDS011;40833;53.238;6.576;2023-08-12T11:32:50;3.22;;;2.50;;
54929;SDS011;40833;53.238;6.576;2023-08-12T11:35:17;4.60;;;1.88;;
54929;SDS011;40833;53.238;6.576;2023-08-12T11:37:45;3.67;;;2.15;;
54929;SDS011;40833;53.238;6.576;2023-08-12T11:40:12;4.75;;;2.05;;
54929;SDS011;40833;53.238;6.576;2023-08-12T11:42:43;2.17;;;1.73;;
54929;SDS011;40833;53.238;6.576;2023-08-12T11:45:10;1.67;;;1.27;;
54929;SDS011;40833;53.238;6.576;2023-08-12T11:47:39;3.72;;;1.77;;
54929;SDS011;40833;53.238;6.576;2023-08-12T11:50:06;4.47;;;1.70;;
54929;SDS011;40833;53.238;6.576;2023-08-12T11:52:34;3.17;;;1.60;;
54929;SDS011;40833;53.238;6.576;2023-08-12T11:55:01;5.63;;;1.60;;
54929;SDS011;40833;53.238;6.576;2023-08-12T11:57:27;1.23;;;0.68;;
54929;SDS011;40833;53.238;6.576;2023-08-12T12:00:00;3.45;;;0.77;;
54929;SDS011;40833;53.238;6.576;2023-08-12T12:02:30;28.08;;;2.80;;
54929;SDS011;40833;53.238;6.576;2023-08-12T12:04:55;6.05;;;3.13;;
54929;SDS011;40833;53.238;6.576;2023-08-12T12:07:22;4.47;;;3.15;;
54929;SDS011;40833;53.238;6.576;2023-08-12T12:09:53;10.27;;;2.88;;
54929;SDS011;40833;53.238;6.576;2023-08-12T12:12:25;12.00;;;2.70;;
54929;SDS011;40833;53.238;6.576;2023-08-12T12:17:18;6.18;;;2.55;;
54929;SDS011;40833;53.238;6.576;2023-08-12T12:19:46;6.43;;;2.00;;
54929;SDS011;40833;53.238;6.576;2023-08-12T12:22:12;6.75;;;1.83;;
54929;SDS011;40833;53.238;6.576;2023-08-12T12:24:45;4.18;;;1.63;;
54929;SDS011;40833;53.238;6.576;2023-08-12T12:27:12;5.20;;;1.92;;
54929;SDS011;40833;53.238;6.576;2023-08-12T12:29:38;4.22;;;1.90;;
54929;SDS011;40833;53.238;6.576;2023-08-12T12:32:04;6.25;;;1.75;;
54929;SDS011;40833;53.238;6.576;2023-08-12T12:34:30;8.63;;;2.10;;
54929;SDS011;40833;53.238;6.576;2023-08-12T12:36:56;5.45;;;2.28;;
54929;SDS011;40833;53.238;6.576;2023-08-12T12:39:21;5.65;;;1.90;;
54929;SDS011;40833;53.238;6.576;2023-08-12T12:41:50;8.38;;;2.15;;
54929;SDS011;40833;53.238;6.576;2023-08-12T12:44:16;9.63;;;2.80;;
54929;SDS011;40833;53.238;6.576;2023-08-12T12:46:42;6.05;;;1.80;;
54929;SDS011;40833;53.238;6.576;2023-08-12T12:49:07;8.93;;;1.75;;
54929;SDS011;40833;53.238;6.576;2023-08-12T12:51:33;6.03;;;1.67;;
54929;SDS011;40833;53.238;6.576;2023-08-12T12:53:58;4.65;;;1.42;;
54929;SDS011;40833;53.238;6.576;2023-08-12T12:56:24;4.25;;;1.55;;
54929;SDS011;40833;53.238;6.576;2023-08-12T12:58:50;4.82;;;1.52;;
54929;SDS011;40833;53.238;6.576;2023-08-12T13:01:16;4.60;;;1.20;;
54929;SDS011;40833;53.238;6.576;2023-08-12T13:03:41;6.40;;;1.48;;
54929;SDS011;40833;53.238;6.576;2023-08-12T13:06:07;3.17;;;1.08;;
54929;SDS011;40833;53.238;6.576;2023-08-12T13:08:33;5.53;;;1.40;;
54929;SDS011;40833;53.238;6.576;2023-08-12T13:10:58;5.68;;;1.38;;
54929;SDS011;40833;53.238;6.576;2023-08-12T13:13:24;7.07;;;1.40;;
54929;SDS011;40833;53.238;6.576;2023-08-12T13:15:50;6.13;;;1.63;;
54929;SDS011;40833;53.238;6.576;2023-08-12T13:18:16;5.50;;;1.60;;
54929;SDS011;40833;53.238;6.576;2023-08-12T13:20:42;5.65;;;1.63;;
54929;SDS011;40833;53.238;6.576;2023-08-12T13:23:08;8.02;;;1.50;;
54929;SDS011;40833;53.238;6.576;2023-08-12T13:25:33;7.07;;;1.67;;
54929;SDS011;40833;53.238;6.576;2023-08-12T13:28:00;5.10;;;1.60;;
54929;SDS011;40833;53.238;6.576;2023-08-12T13:30:26;6.63;;;1.42;;
54929;SDS011;40833;53.238;6.576;2023-08-12T13:32:52;6.00;;;1.67;;
54929;SDS011;40833;53.238;6.576;2023-08-12T13:35:18;7.55;;;1.95;;
54929;SDS011;40833;53.238;6.576;2023-08-12T13:37:44;11.82;;;2.50;;
54929;SDS011;40833;53.238;6.576;2023-08-12T13:40:09;9.43;;;2.53;;
54929;SDS011;40833;53.238;6.576;2023-08-12T13:42:37;10.60;;;2.22;;
54929;SDS011;40833;53.238;6.576;2023-08-12T13:45:03;5.80;;;2.13;;
54929;SDS011;40833;53.238;6.576;2023-08-12T13:50:01;8.70;;;2.40;;
54929;SDS011;40833;53.238;6.576;2023-08-12T13:52:27;10.75;;;3.13;;
54929;SDS011;40833;53.238;6.576;2023-08-12T13:54:53;11.52;;;2.60;;
54929;SDS011;40833;53.238;6.576;2023-08-12T13:57:18;8.35;;;2.55;;
54929;SDS011;40833;53.238;6.576;2023-08-12T13:59:44;10.25;;;2.80;;
54929;SDS011;40833;53.238;6.576;2023-08-12T14:02:10;9.35;;;2.80;;
54929;SDS011;40833;53.238;6.576;2023-08-12T14:04:36;9.55;;;2.80;;
54929;SDS011;40833;53.238;6.576;2023-08-12T14:07:02;10.43;;;2.40;;
54929;SDS011;40833;53.238;6.576;2023-08-12T14:09:31;12.55;;;2.50;;
54929;SDS011;40833;53.238;6.576;2023-08-12T14:11:57;8.48;;;2.08;;
54929;SDS011;40833;53.238;6.576;2023-08-12T14:14:24;11.00;;;2.40;;
54929;SDS011;40833;53.238;6.576;2023-08-12T14:16:52;10.40;;;2.30;;
54929;SDS011;40833;53.238;6.576;2023-08-12T14:19:18;9.30;;;1.30;;
54929;SDS011;40833;53.238;6.576;2023-08-12T14:21:44;5.60;;;0.90;;
54929;SDS011;40833;53.238;6.576;2023-08-12T14:24:10;7.50;;;1.10;;
54929;SDS011;40833;53.238;6.576;2023-08-12T14:26:36;7.32;;;1.40;;
54929;SDS011;40833;53.238;6.576;2023-08-12T14:29:02;4.43;;;0.85;;
54929;SDS011;40833;53.238;6.576;2023-08-12T14:31:27;6.05;;;0.90;;
54929;SDS011;40833;53.238;6.576;2023-08-12T14:33:53;7.82;;;1.70;;
54929;SDS011;40833;53.238;6.576;2023-08-12T14:36:19;6.38;;;1.17;;
54929;SDS011;40833;53.238;6.576;2023-08-12T14:38:44;6.57;;;1.65;;
54929;SDS011;40833;53.238;6.576;2023-08-12T14:41:10;5.78;;;0.93;;
54929;SDS011;40833;53.238;6.576;2023-08-12T14:43:36;7.05;;;1.70;;
54929;SDS011;40833;53.238;6.576;2023-08-12T14:46:02;8.93;;;1.63;;
54929;SDS011;40833;53.238;6.576;2023-08-12T14:48:27;4.68;;;1.05;;
54929;SDS011;40833;53.238;6.576;2023-08-12T14:50:54;3.42;;;1.13;;
54929;SDS011;40833;53.238;6.576;2023-08-12T14:53:20;5.93;;;1.50;;